Time,TemperatureF,DewpointF,PressureIn,WindDirection,WindDirectionDegrees,WindSpeedMPH,WindSpeedGustMPH,Humidity,HourlyPrecipIn,Conditions,Clouds,dailyrainin,SolarRadiationWatts/m^2,SoftwareType,DateUTC
2013-12-26 00:21:00,16.0,2.0,-100.00,East,92,5.0,10.0,54,0.00,,,-99.99,0.000000,,2013-12-26 07:21:00,
2013-12-26 00:32:00,16.0,2.0,-100.00,East,92,5.0,10.0,54,0.00,,,-99.99,0.000000,,2013-12-26 07:32:00,
2013-12-26 00:42:00,16.0,2.0,-100.00,East,92,5.0,10.0,54,0.00,,,-99.99,0.000000,,2013-12-26 07:42:00,
2013-12-26 01:22:00,17.0,2.0,-100.00,ESE,105,3.0,5.0,51,0.00,,,0.10,0.000000,,2013-12-26 08:22:00,
2013-12-26 01:32:00,17.0,2.0,-100.00,ESE,105,3.0,5.0,51,0.00,,,0.10,0.000000,,2013-12-26 08:32:00,
2013-12-26 01:42:00,17.0,2.0,-100.00,ESE,105,3.0,5.0,51,0.00,,,0.10,0.000000,,2013-12-26 08:42:00,
2013-12-26 01:52:00,17.0,2.0,-100.00,ESE,105,3.0,5.0,51,0.00,,,0.10,0.000000,,2013-12-26 08:52:00,
2013-12-26 02:22:00,16.0,3.0,-100.00,ESE,120,6.0,9.0,56,0.00,,,0.10,0.000000,,2013-12-26 09:22:00,
2013-12-26 02:32:00,16.0,3.0,-100.00,ESE,120,6.0,9.0,56,0.00,,,0.10,0.000000,,2013-12-26 09:32:00,
2013-12-26 02:43:00,16.0,3.0,-100.00,ESE,120,6.0,9.0,56,0.00,,,0.10,0.000000,,2013-12-26 09:43:00,
2013-12-26 02:53:00,16.0,3.0,-100.00,ESE,120,6.0,9.0,56,0.00,,,0.10,0.000000,,2013-12-26 09:53:00,
2013-12-26 03:22:00,16.0,2.0,-100.00,ESE,106,5.0,9.0,53,0.00,,,0.10,0.000000,,2013-12-26 10:22:00,
2013-12-26 03:32:00,16.0,2.0,-100.00,ESE,106,5.0,9.0,53,0.00,,,0.10,0.000000,,2013-12-26 10:32:00,
2013-12-26 03:42:00,16.0,2.0,-100.00,ESE,106,5.0,9.0,53,0.00,,,0.10,0.000000,,2013-12-26 10:42:00,
2013-12-26 03:52:00,16.0,2.0,-100.00,ESE,106,5.0,9.0,53,0.00,,,0.10,0.000000,,2013-12-26 10:52:00,
2013-12-26 04:21:00,18.0,1.0,-100.00,ESE,111,6.0,9.0,47,0.00,,,0.10,0.000000,,2013-12-26 11:21:00,
2013-12-26 04:33:00,18.0,1.0,-100.00,ESE,111,6.0,9.0,47,0.00,,,0.10,0.000000,,2013-12-26 11:33:00,
2013-12-26 04:43:00,18.0,1.0,-100.00,ESE,111,6.0,9.0,47,0.00,,,0.10,0.000000,,2013-12-26 11:43:00,
2013-12-26 04:52:00,18.0,1.0,-100.00,ESE,111,6.0,9.0,47,0.00,,,0.10,0.000000,,2013-12-26 11:52:00,
2013-12-26 05:22:00,20.0,-2.0,-100.00,East,99,3.0,7.0,37,0.00,,,0.10,0.000000,,2013-12-26 12:22:00,
2013-12-26 05:32:00,20.0,-2.0,-100.00,East,99,3.0,7.0,37,0.00,,,0.10,0.000000,,2013-12-26 12:32:00,
2013-12-26 05:52:00,20.0,-2.0,-100.00,East,99,3.0,7.0,37,0.00,,,0.10,0.000000,,2013-12-26 12:52:00,
2013-12-26 06:21:00,18.0,-1.0,-100.00,ESE,114,6.0,9.0,43,0.00,,,0.10,0.000000,,2013-12-26 13:21:00,
2013-12-26 06:32:00,18.0,-1.0,-100.00,ESE,114,6.0,9.0,43,0.00,,,0.10,0.000000,,2013-12-26 13:32:00,
2013-12-26 06:52:00,18.0,-1.0,-100.00,ESE,114,6.0,9.0,43,0.00,,,0.10,0.000000,,2013-12-26 13:52:00,
2013-12-26 07:22:00,18.0,-1.0,-100.00,ESE,107,5.0,8.0,43,0.00,,,0.10,0.000000,,2013-12-26 14:22:00,
2013-12-26 07:32:00,18.0,-1.0,-100.00,ESE,107,5.0,8.0,43,0.00,,,0.10,0.000000,,2013-12-26 14:32:00,
2013-12-26 08:21:00,19.0,0.0,-100.00,ESE,119,5.0,7.0,42,0.00,,,-99.99,14.000000,,2013-12-26 15:21:00,
2013-12-26 08:33:00,19.0,0.0,-100.00,ESE,119,5.0,7.0,42,0.00,,,-99.99,14.000000,,2013-12-26 15:33:00,
2013-12-26 08:53:00,19.0,0.0,-100.00,ESE,119,5.0,7.0,42,0.00,,,-99.99,14.000000,,2013-12-26 15:53:00,
2013-12-26 10:23:00,25.0,1.0,-100.00,ESE,109,4.0,7.0,34,0.00,,,0.10,77.000000,,2013-12-26 17:23:00,
2013-12-26 10:32:00,25.0,1.0,-100.00,ESE,109,4.0,7.0,34,0.00,,,0.10,77.000000,,2013-12-26 17:32:00,
2013-12-26 10:52:00,25.0,1.0,-100.00,ESE,109,4.0,7.0,34,0.00,,,0.10,77.000000,,2013-12-26 17:52:00,
2013-12-26 11:52:00,32.0,1.0,-100.00,SE,133,2.0,6.0,26,0.01,,,0.11,151.000000,,2013-12-26 18:52:00,
2013-12-26 13:22:00,38.0,6.0,-100.00,East,97,4.0,8.0,26,0.03,,,0.12,529.000000,,2013-12-26 20:22:00,
2013-12-26 13:32:00,38.0,6.0,-100.00,East,97,4.0,8.0,26,0.03,,,0.12,529.000000,,2013-12-26 20:32:00,
2013-12-26 13:52:00,38.0,6.0,-100.00,East,97,4.0,8.0,26,0.03,,,0.12,529.000000,,2013-12-26 20:52:00,
2013-12-26 14:21:00,41.0,6.0,-100.00,ESE,106,3.0,6.0,23,0.04,,,0.14,459.000000,,2013-12-26 21:21:00,
2013-12-26 14:33:00,41.0,6.0,-100.00,ESE,106,3.0,6.0,23,0.04,,,0.14,459.000000,,2013-12-26 21:33:00,
2013-12-26 15:23:00,38.0,5.0,-100.00,SE,135,2.0,5.0,25,0.03,,,0.14,330.000000,,2013-12-26 22:23:00,
2013-12-26 15:33:00,38.0,5.0,-100.00,SE,135,2.0,5.0,25,0.03,,,0.14,330.000000,,2013-12-26 22:33:00,
2013-12-26 15:52:00,38.0,5.0,-100.00,SE,135,2.0,5.0,25,0.03,,,0.14,330.000000,,2013-12-26 22:52:00,
2013-12-26 16:22:00,32.0,5.0,-100.00,SE,140,3.0,5.0,31,0.01,,,0.14,117.000000,,2013-12-26 23:22:00,
2013-12-26 16:32:00,32.0,5.0,-100.00,SE,140,3.0,5.0,31,0.01,,,0.14,117.000000,,2013-12-26 23:32:00,
2013-12-26 16:53:00,32.0,5.0,-100.00,SE,140,3.0,5.0,31,0.01,,,0.14,117.000000,,2013-12-26 23:53:00,
2013-12-26 17:22:00,28.0,5.0,-100.00,East,99,4.0,6.0,37,0.00,,,0.14,38.000000,,2013-12-27 00:22:00,
2013-12-26 17:32:00,28.0,5.0,-100.00,East,99,4.0,6.0,37,0.00,,,0.14,38.000000,,2013-12-27 00:32:00,
2013-12-26 17:42:00,28.0,5.0,-100.00,East,99,4.0,6.0,37,0.00,,,0.14,38.000000,,2013-12-27 00:42:00,
2013-12-26 17:52:00,28.0,5.0,-100.00,East,99,4.0,6.0,37,0.00,,,0.14,38.000000,,2013-12-27 00:52:00,
2013-12-26 18:21:00,25.0,5.0,-100.00,SE,130,4.0,6.0,41,0.00,,,0.14,1.000000,,2013-12-27 01:21:00,
2013-12-26 18:32:00,25.0,5.0,-100.00,SE,130,4.0,6.0,41,0.00,,,0.14,1.000000,,2013-12-27 01:32:00,
2013-12-26 18:42:00,25.0,5.0,-100.00,SE,130,4.0,6.0,41,0.00,,,0.14,1.000000,,2013-12-27 01:42:00,
2013-12-26 18:52:00,25.0,5.0,-100.00,SE,130,4.0,6.0,41,0.00,,,0.14,1.000000,,2013-12-27 01:52:00,
2013-12-26 19:22:00,23.0,6.0,-100.00,SE,128,4.0,7.0,47,0.00,,,0.14,0.000000,,2013-12-27 02:22:00,
2013-12-26 19:32:00,23.0,6.0,-100.00,SE,128,4.0,7.0,47,0.00,,,0.14,0.000000,,2013-12-27 02:32:00,
2013-12-26 19:42:00,23.0,6.0,-100.00,SE,128,4.0,7.0,47,0.00,,,0.14,0.000000,,2013-12-27 02:42:00,
2013-12-26 19:52:00,23.0,6.0,-100.00,SE,128,4.0,7.0,47,0.00,,,0.14,0.000000,,2013-12-27 02:52:00,
2013-12-26 20:21:00,22.0,8.0,-100.00,ESE,109,4.0,7.0,53,0.00,,,0.14,0.000000,,2013-12-27 03:21:00,
2013-12-26 20:33:00,22.0,8.0,-100.00,ESE,109,4.0,7.0,53,0.00,,,0.14,0.000000,,2013-12-27 03:33:00,
2013-12-26 20:43:00,22.0,8.0,-100.00,ESE,109,4.0,7.0,53,0.00,,,0.14,0.000000,,2013-12-27 03:43:00,
2013-12-26 20:53:00,22.0,8.0,-100.00,ESE,109,4.0,7.0,53,0.00,,,0.14,0.000000,,2013-12-27 03:53:00,
2013-12-26 21:23:00,22.0,8.0,-100.00,SE,131,4.0,6.0,55,0.00,,,0.14,0.000000,,2013-12-27 04:23:00,
2013-12-26 21:33:00,22.0,8.0,-100.00,SE,131,4.0,6.0,55,0.00,,,0.14,0.000000,,2013-12-27 04:33:00,
2013-12-26 21:42:00,22.0,8.0,-100.00,SE,131,4.0,6.0,55,0.00,,,0.14,0.000000,,2013-12-27 04:42:00,
2013-12-26 21:53:00,22.0,8.0,-100.00,SE,131,4.0,6.0,55,0.00,,,0.14,0.000000,,2013-12-27 04:53:00,
2013-12-26 22:22:00,21.0,9.0,-100.00,East,98,4.0,8.0,58,0.00,,,-99.99,0.000000,,2013-12-27 05:22:00,
2013-12-26 22:32:00,21.0,9.0,-100.00,East,98,4.0,8.0,58,0.00,,,-99.99,0.000000,,2013-12-27 05:32:00,
2013-12-26 22:42:00,21.0,9.0,-100.00,East,98,4.0,8.0,58,0.00,,,-99.99,0.000000,,2013-12-27 05:42:00,
2013-12-26 22:52:00,21.0,9.0,-100.00,East,98,4.0,8.0,58,0.00,,,-99.99,0.000000,,2013-12-27 05:52:00,
2013-12-26 23:22:00,20.0,9.0,-100.00,East,91,3.0,7.0,61,0.00,,,0.14,0.000000,,2013-12-27 06:22:00,
2013-12-26 23:32:00,20.0,9.0,-100.00,East,91,3.0,7.0,61,0.00,,,0.14,0.000000,,2013-12-27 06:32:00,
2013-12-26 23:42:00,20.0,9.0,-100.00,East,91,3.0,7.0,61,0.00,,,0.14,0.000000,,2013-12-27 06:42:00,
2013-12-26 23:52:00,20.0,9.0,-100.00,East,91,3.0,7.0,61,0.00,,,0.14,0.000000,,2013-12-27 06:52:00,